createdAt,value
2018-12-17T00:04:19.448Z,14.43
2018-12-17T00:09:20.130Z,15.17
2018-12-17T00:14:18.859Z,12.67
2018-12-17T00:19:17.642Z,14.70
2018-12-17T00:24:16.392Z,15.20
2018-12-17T00:29:15.141Z,14.83
2018-12-17T00:34:13.922Z,14.87
2018-12-17T00:39:12.669Z,16.77
2018-12-17T00:44:11.437Z,17.90
2018-12-17T00:49:10.220Z,12.50
2018-12-17T00:54:08.942Z,12.17
2018-12-17T00:59:07.725Z,12.70
2018-12-17T01:04:06.586Z,14.37
2018-12-17T01:09:06.579Z,12.80
2018-12-17T01:14:07.264Z,12.87
2018-12-17T01:19:06.062Z,14.90
2018-12-17T01:24:04.879Z,17.60
2018-12-17T01:29:03.683Z,18.60
2018-12-17T01:34:02.492Z,17.27
2018-12-17T01:39:01.268Z,17.53
2018-12-17T01:44:02.068Z,15.80
2018-12-17T01:49:00.945Z,18.40
2018-12-17T01:53:59.750Z,13.50
2018-12-17T01:58:58.470Z,16.33
2018-12-17T02:03:57.198Z,19.97
2018-12-17T02:08:56.014Z,18.00
2018-12-17T02:13:54.830Z,19.33
2018-12-17T02:18:53.659Z,20.13
2018-12-17T02:23:53.125Z,19.03
2018-12-17T02:28:51.870Z,20.63
2018-12-17T02:33:50.642Z,19.53
2018-12-17T02:38:49.363Z,16.07
2018-12-17T02:43:48.490Z,15.13
2018-12-17T02:48:47.281Z,18.20
2018-12-17T02:53:46.044Z,17.60
2018-12-17T02:58:44.783Z,20.50
2018-12-17T03:03:43.592Z,20.20
2018-12-17T03:08:42.399Z,19.73
2018-12-17T03:13:41.199Z,20.40
2018-12-17T03:18:39.926Z,21.43
2018-12-17T03:23:38.727Z,24.30
2018-12-17T03:28:37.455Z,19.30
2018-12-17T03:33:36.195Z,23.37
2018-12-17T03:38:34.926Z,17.17
2018-12-17T03:43:33.692Z,20.80
2018-12-17T03:48:32.437Z,20.67
2018-12-17T03:53:31.261Z,23.80
2018-12-17T03:58:29.998Z,20.20
2018-12-17T04:03:28.741Z,21.47
2018-12-17T04:08:27.534Z,23.90
2018-12-17T04:13:26.278Z,23.10
2018-12-17T04:18:25.584Z,21.57
2018-12-17T04:23:24.302Z,17.87
2018-12-17T04:28:25.053Z,22.67
2018-12-17T04:33:23.795Z,18.93
2018-12-17T04:38:22.543Z,17.40
2018-12-17T04:43:21.274Z,20.57
2018-12-17T04:48:20.005Z,19.30
2018-12-17T04:53:19.152Z,16.90
2018-12-17T04:58:17.982Z,18.47
2018-12-17T05:03:16.742Z,22.47
2018-12-17T05:08:15.498Z,22.80
2018-12-17T05:13:14.265Z,16.00
2018-12-17T05:18:13.022Z,23.00
2018-12-17T05:23:11.844Z,21.70
2018-12-17T05:28:10.617Z,21.70
2018-12-17T05:33:09.578Z,19.07
2018-12-17T05:38:08.298Z,20.67
2018-12-17T05:43:07.160Z,20.10
2018-12-17T05:48:05.938Z,19.30
2018-12-17T05:53:04.885Z,21.93
2018-12-17T05:58:03.698Z,27.53
2018-12-17T06:03:02.520Z,23.77
2018-12-17T06:08:01.384Z,26.00
2018-12-17T06:13:00.135Z,21.97
2018-12-17T06:17:58.870Z,19.60
2018-12-17T06:22:57.624Z,25.00
2018-12-17T06:27:56.374Z,24.30
2018-12-17T06:32:55.150Z,20.03
2018-12-17T06:37:53.919Z,24.87
2018-12-17T06:42:52.678Z,25.43
2018-12-17T06:47:51.878Z,22.53
2018-12-17T06:52:50.626Z,20.53
2018-12-17T06:57:49.518Z,22.27
2018-12-17T07:02:48.246Z,31.50
2018-12-17T07:07:46.986Z,25.93
2018-12-17T07:12:45.738Z,25.90
2018-12-17T07:17:44.510Z,30.03
2018-12-17T07:22:43.326Z,26.10
2018-12-17T07:27:42.115Z,32.83
2018-12-17T07:32:40.954Z,28.60
2018-12-17T07:37:39.806Z,29.30
2018-12-17T07:42:38.570Z,21.43
2018-12-17T07:47:37.294Z,32.20
2018-12-17T07:52:36.036Z,24.17
2018-12-17T07:57:34.866Z,20.40
2018-12-17T08:02:33.663Z,28.77
2018-12-17T08:07:32.461Z,24.47
2018-12-17T08:12:31.274Z,27.37
2018-12-17T08:17:30.126Z,28.10
2018-12-17T08:22:29.203Z,20.50
2018-12-17T08:27:27.955Z,27.30
2018-12-17T08:32:26.850Z,30.40
2018-12-17T08:42:30.742Z,24.90
2018-12-17T08:47:29.470Z,27.97
2018-12-17T08:52:28.342Z,30.80
2018-12-17T08:57:27.146Z,24.53
2018-12-17T09:02:25.890Z,22.00
2018-12-17T09:07:24.701Z,26.13
2018-12-17T09:12:23.471Z,22.40
2018-12-17T09:17:22.328Z,22.20
2018-12-17T09:22:21.219Z,20.20
2018-12-17T09:27:20.014Z,24.37
2018-12-17T09:32:18.737Z,22.30
2018-12-17T09:37:17.542Z,20.93
2018-12-17T09:42:16.267Z,23.40
2018-12-17T09:47:15.047Z,20.80
2018-12-17T09:52:13.848Z,25.77
2018-12-17T09:57:12.734Z,21.40
2018-12-17T10:02:11.607Z,18.80
2018-12-17T10:07:10.390Z,22.17
2018-12-17T10:12:09.173Z,22.40
2018-12-17T10:17:08.004Z,26.27
2018-12-17T10:22:08.190Z,19.67
2018-12-17T10:27:07.189Z,23.63
2018-12-17T10:32:06.001Z,22.13
2018-12-17T10:37:04.795Z,23.30
2018-12-17T10:42:03.667Z,19.17
2018-12-17T10:47:04.462Z,18.20
2018-12-17T10:52:03.294Z,19.70
2018-12-17T10:57:02.138Z,25.60
2018-12-17T11:02:08.816Z,19.93
2018-12-17T11:07:07.670Z,18.63
2018-12-17T11:12:06.454Z,19.13
2018-12-17T11:17:05.354Z,25.80
2018-12-17T11:22:04.203Z,23.57
2018-12-17T11:27:02.938Z,22.27
2018-12-17T11:32:01.716Z,21.90
2018-12-17T11:37:00.595Z,19.70
2018-12-17T11:41:59.369Z,18.60
2018-12-17T11:46:58.189Z,21.90
2018-12-17T11:51:57.063Z,26.73
2018-12-17T11:59:12.209Z,21.03
2018-12-17T12:04:13.432Z,15.90
2018-12-17T12:09:14.366Z,17.10
2018-12-17T12:14:13.456Z,22.60
2018-12-17T12:19:12.224Z,20.70
2018-12-17T12:24:10.982Z,19.53
2018-12-17T12:29:09.719Z,24.20
2018-12-17T12:34:08.486Z,22.33
2018-12-17T12:39:07.373Z,20.80
2018-12-17T12:44:08.925Z,15.73
2018-12-17T12:49:07.823Z,16.07
2018-12-17T12:54:06.622Z,17.03
2018-12-17T12:59:05.465Z,21.30
2018-12-17T13:04:04.319Z,15.37
2018-12-17T13:09:04.094Z,21.23
2018-12-17T13:14:04.826Z,22.47
2018-12-17T13:19:04.670Z,20.03
2018-12-17T13:24:03.542Z,17.87
2018-12-17T13:29:02.318Z,14.70
2018-12-17T13:34:01.098Z,18.77
2018-12-17T13:38:59.842Z,17.90
2018-12-17T13:43:58.630Z,18.20
2018-12-17T13:48:57.465Z,19.10
2018-12-17T13:53:59.781Z,21.27
2018-12-17T13:58:58.570Z,22.10
2018-12-17T14:03:57.385Z,15.97
2018-12-17T14:08:56.181Z,19.80
2018-12-17T14:13:54.918Z,18.30
2018-12-17T14:18:59.114Z,14.20
2018-12-17T14:23:57.830Z,18.63
2018-12-17T14:28:57.598Z,13.20
2018-12-17T14:33:56.342Z,17.80
2018-12-17T14:38:55.182Z,19.63
2018-12-17T14:43:55.959Z,13.67
2018-12-17T14:48:54.688Z,15.87
2018-12-17T14:53:53.490Z,18.57
2018-12-17T14:58:52.314Z,15.10
2018-12-17T15:03:51.027Z,16.27
2018-12-17T15:08:49.803Z,18.10
2018-12-17T15:13:48.602Z,12.57
2018-12-17T15:18:47.402Z,14.90
2018-12-17T15:23:46.283Z,12.67
2018-12-17T15:28:45.123Z,14.97
2018-12-17T15:33:44.054Z,12.20
2018-12-17T15:38:42.838Z,12.73
2018-12-17T15:43:42.657Z,12.93
2018-12-17T15:48:41.470Z,12.63
2018-12-17T15:53:40.220Z,11.13
2018-12-17T15:58:39.011Z,14.63
2018-12-17T16:03:37.811Z,14.03
2018-12-17T16:08:36.597Z,13.50
2018-12-17T16:13:35.311Z,15.80
2018-12-17T16:18:34.153Z,13.30
2018-12-17T16:23:32.872Z,10.10
2018-12-17T16:28:31.605Z,13.93
2018-12-17T16:33:30.423Z,15.20
2018-12-17T16:38:29.223Z,12.03
2018-12-17T16:43:28.009Z,13.30
2018-12-17T16:48:26.735Z,13.40
2018-12-17T16:53:25.582Z,9.70
2018-12-17T16:58:24.363Z,16.43
2018-12-17T17:03:23.098Z,13.70
2018-12-17T17:08:22.949Z,13.40
2018-12-17T17:13:21.694Z,11.97
2018-12-17T17:18:20.518Z,11.10
2018-12-17T17:23:19.306Z,13.83
2018-12-17T17:28:18.030Z,11.20
2018-12-17T17:33:16.777Z,9.77
2018-12-17T17:38:15.502Z,9.90
2018-12-17T17:43:15.265Z,11.80
2018-12-17T17:48:14.148Z,10.60
2018-12-17T17:53:12.882Z,12.43
2018-12-17T17:58:11.624Z,13.93
2018-12-17T18:03:10.565Z,12.57
2018-12-17T18:08:09.378Z,12.60
2018-12-17T18:13:08.121Z,16.10
2018-12-17T18:18:06.908Z,12.53
2018-12-17T18:23:05.641Z,10.60
2018-12-17T18:28:04.458Z,15.77
2018-12-17T18:33:03.349Z,12.90
2018-12-17T18:38:02.147Z,13.53
2018-12-17T18:43:00.952Z,13.97
2018-12-17T18:47:59.786Z,11.30
2018-12-17T18:52:58.495Z,12.53
2018-12-17T18:57:57.258Z,15.33
2018-12-17T19:02:55.989Z,12.63
2018-12-17T19:07:54.797Z,11.40
2018-12-17T19:12:53.497Z,10.90
2018-12-17T19:17:53.140Z,14.90
2018-12-17T19:22:51.918Z,11.30
2018-12-17T19:27:50.702Z,8.20
2018-12-17T19:32:49.510Z,13.13
2018-12-17T19:37:48.282Z,11.90
2018-12-17T19:42:47.055Z,14.50
2018-12-17T19:47:45.826Z,11.37
2018-12-17T19:52:44.597Z,11.73
2018-12-17T19:57:43.422Z,13.10
2018-12-17T20:02:47.015Z,14.30
2018-12-17T20:07:42.942Z,13.07
2018-12-17T20:12:41.718Z,14.40
2018-12-17T20:17:41.515Z,11.90
2018-12-17T20:22:40.254Z,10.80
2018-12-17T20:27:39.047Z,13.80
2018-12-17T20:32:37.862Z,14.20
2018-12-17T20:37:36.787Z,14.80
2018-12-17T20:42:35.650Z,15.00
2018-12-17T20:47:34.491Z,13.10
2018-12-17T20:52:33.359Z,13.73
2018-12-17T20:57:32.152Z,10.63
2018-12-17T21:02:30.965Z,9.70
2018-12-17T21:07:29.760Z,14.27
2018-12-17T21:12:28.611Z,13.07
2018-12-17T21:17:27.406Z,14.27
2018-12-17T21:22:26.206Z,11.83
2018-12-17T21:27:24.954Z,10.73
2018-12-17T21:32:23.734Z,14.03
2018-12-17T21:37:22.499Z,12.53
2018-12-17T21:42:21.327Z,12.87
2018-12-17T21:47:21.186Z,14.90
2018-12-17T21:52:20.107Z,12.67
2018-12-17T21:57:18.967Z,14.73
2018-12-17T22:02:17.957Z,14.33
2018-12-17T22:07:17.201Z,11.80
2018-12-17T22:12:16.051Z,11.03
2018-12-17T22:17:14.797Z,9.27
2018-12-17T22:22:14.562Z,14.37
2018-12-17T22:27:13.346Z,10.00
2018-12-17T22:32:12.262Z,13.67
2018-12-17T22:37:11.118Z,15.53
2018-12-17T22:42:09.911Z,13.93
2018-12-17T22:47:08.762Z,11.93
2018-12-17T22:52:07.538Z,14.90
2018-12-17T22:57:06.394Z,14.47
2018-12-17T23:02:05.281Z,14.57
2018-12-17T23:07:04.184Z,13.63
2018-12-17T23:12:14.454Z,16.20
2018-12-17T23:17:24.657Z,17.30
2018-12-17T23:22:23.999Z,13.10
2018-12-17T23:27:24.766Z,14.40
2018-12-17T23:32:25.679Z,17.07
2018-12-17T23:37:24.423Z,14.70
2018-12-17T23:42:23.303Z,14.57
2018-12-17T23:47:22.124Z,14.50
2018-12-17T23:52:20.985Z,15.30
2018-12-17T23:57:19.831Z,14.60
